Golden Valley, Arizona
Current Conditions -  °F | °C
As of 1:51 AM on Thursday 23 Oct 2014 (Local Time) from KIGM Reporting Station
Clear Clear  
Wind Chill: 50°   Ceiling: Unl
Heat Index: 50°   Visibility: 10mi
Dew Point: 39°   Wind: 3mph
Humidity: 66%   Direction: 80°E
Pressure: 30.12"   Gusts: NA
Location:  35.22°N, 114.22°W
Report Text: KIGM 230851Z AUTO 08003KT 10SM CLR 10/04 A3012 RMK AO2 SLP143 T01000039 53002
Loading
Personal Weather Stations






























Interactive Weather Map
Tropical Storm Tracking
New forecast layout! Learn more

10-Day Weather Forecast

Advertisements
Track Severe Weather on mobile